Time;durP1;ratioP1;P1;durP2;ratioP2;P2;SDS_P1;SDS_P2;PMS_P1;PMS_P2;Temp;Humidity;BMP_temperature;BMP_pressure;BME280_temperature;BME280_humidity;BME280_pressure;Samples;Min_cycle;Max_cycle;Signal;HPM_P1;HPM_P2
2022/05/29 00:01:01;;;;;;;;;;;16.20;99.90;;;;;;4590287;19;20409;-24
2022/05/29 00:02:31;;;;;;;;;;;16.20;99.90;;;;;;4592803;19;19930;-24
2022/05/29 00:04:02;;;;;;;;;;;16.20;99.90;;;;;;4593239;19;19910;-24
2022/05/29 00:05:34;;;;;;;;;;;16.20;99.90;;;;;;4591806;19;19974;-27
2022/05/29 00:07:05;;;;;;;;;;;16.20;99.90;;;;;;4591622;19;19948;-25
2022/05/29 00:08:36;;;;;;;;;;;16.20;99.90;;;;;;4592039;19;19919;-27
2022/05/29 00:10:08;;;;;;;;;;;16.20;99.90;;;;;;4591433;19;19911;-25
2022/05/29 00:11:40;;;;;;;;;;;16.20;99.90;;;;;;4593275;19;19963;-24
2022/05/29 00:13:11;;;;;;;;;;;16.20;99.90;;;;;;4592767;19;19914;-24
2022/05/29 00:14:42;;;;;;;;;;;16.20;99.90;;;;;;4593048;19;19923;-25
2022/05/29 00:16:13;;;;;;;;;;;16.20;99.90;;;;;;4591200;19;19919;-25
2022/05/29 00:17:44;;;;;;;;;;;16.10;99.90;;;;;;4591308;19;20385;-24
2022/05/29 00:19:15;;;;;;;;;;;16.10;99.90;;;;;;4592609;19;19919;-26
2022/05/29 00:20:48;;;;;;;;;;;16.10;99.90;;;;;;4591860;19;20238;-24
2022/05/29 00:22:19;;;;;;;;;;;16.10;99.90;;;;;;4593230;19;19911;-24
2022/05/29 00:23:50;;;;;;;;;;;16.10;99.90;;;;;;4591172;19;19978;-24
2022/05/29 00:25:21;;;;;;;;;;;16.10;99.90;;;;;;4592133;19;19923;-27
2022/05/29 00:26:53;;;;;;;;;;;16.10;99.90;;;;;;4592948;19;19925;-24
2022/05/29 00:28:24;;;;;;;;;;;16.10;99.90;;;;;;4592732;19;19919;-25
2022/05/29 00:29:55;;;;;;;;;;;16.10;99.90;;;;;;4592314;19;19914;-24
2022/05/29 00:31:26;;;;;;;;;;;16.10;99.90;;;;;;4591321;19;19950;-26
2022/05/29 00:32:57;;;;;;;;;;;16.10;99.90;;;;;;4591461;19;19915;-25
2022/05/29 00:34:28;;;;;;;;;;;16.10;99.90;;;;;;4591360;19;19911;-24
2022/05/29 00:35:59;;;;;;;;;;;16.10;99.90;;;;;;4592010;19;19925;-24
2022/05/29 00:37:30;;;;;;;;;;;16.10;99.90;;;;;;4591498;19;19910;-24
2022/05/29 00:39:01;;;;;;;;;;;16.10;99.90;;;;;;4591382;19;19910;-24
2022/05/29 00:40:43;;;;;;;;;;;16.10;99.90;;;;;;4591159;19;19921;-24
2022/05/29 00:42:15;;;;;;;;;;;16.10;99.90;;;;;;4590879;19;19929;-29
2022/05/29 00:43:46;;;;;;;;;;;16.10;99.90;;;;;;4590992;19;20333;-24
2022/05/29 00:45:18;;;;;;;;;;;16.10;99.90;;;;;;4590346;19;19918;-24
2022/05/29 00:46:55;;;;;;;;;;;16.10;99.90;;;;;;4589881;19;19929;-24
2022/05/29 00:48:26;;;;;;;;;;;16.10;99.90;;;;;;4590033;19;19915;-24
2022/05/29 00:49:58;;;;;;;;;;;16.10;99.90;;;;;;4590364;19;19915;-25
2022/05/29 00:51:29;;;;;;;;;;;16.10;99.90;;;;;;4589777;19;19922;-26
2022/05/29 00:53:00;;;;;;;;;;;16.10;99.90;;;;;;4590006;19;19964;-24
2022/05/29 00:54:37;;;;;;;;;;;16.10;99.90;;;;;;4589839;19;19923;-28
2022/05/29 00:56:08;;;;;;;;;;;16.10;99.90;;;;;;4589786;19;19998;-24
2022/05/29 00:57:40;;;;;;;;;;;16.00;99.90;;;;;;4589346;19;19931;-26
2022/05/29 00:59:13;;;;;;;;;;;16.10;99.90;;;;;;4589619;19;19942;-23
2022/05/29 01:00:44;;;;;;;;;;;16.00;99.90;;;;;;4587408;19;19929;-29
2022/05/29 01:02:14;;;;;;;;;;;16.10;99.90;;;;;;4588354;19;20293;-25
2022/05/29 01:03:45;;;;;;;;;;;16.10;99.90;;;;;;4590018;19;19925;-26
2022/05/29 01:05:16;;;;;;;;;;;16.00;99.90;;;;;;4588935;19;20008;-26
2022/05/29 01:06:48;;;;;;;;;;;16.00;99.90;;;;;;4589620;19;20234;-27
2022/05/29 01:08:20;;;;;;;;;;;16.10;99.90;;;;;;4589523;19;19926;-25
2022/05/29 01:09:51;;;;;;;;;;;16.10;99.90;;;;;;4589109;19;19914;-25
2022/05/29 01:11:34;;;;;;;;;;;16.00;99.90;;;;;;4589493;19;19926;-27
2022/05/29 01:13:07;;;;;;;;;;;16.00;99.90;;;;;;4588792;19;19936;-25
2022/05/29 01:14:38;;;;;;;;;;;16.00;99.90;;;;;;4588040;19;20230;-24
2022/05/29 01:16:17;;;;;;;;;;;16.00;99.90;;;;;;4588703;19;20016;-25
2022/05/29 01:17:55;;;;;;;;;;;16.10;99.90;;;;;;4585499;19;20002;-26
2022/05/29 01:19:26;;;;;;;;;;;16.10;99.90;;;;;;4589505;19;20455;-23
2022/05/29 01:21:03;;;;;;;;;;;16.10;99.90;;;;;;4587895;19;19961;-25
2022/05/29 01:22:52;;;;;;;;;;;16.10;99.90;;;;;;4589725;19;20325;-26
2022/05/29 01:24:28;;;;;;;;;;;16.00;99.90;;;;;;4591577;19;20271;-27
2022/05/29 01:26:18;;;;;;;;;;;16.10;99.90;;;;;;4590179;19;19925;-27
2022/05/29 01:27:49;;;;;;;;;;;16.10;99.90;;;;;;4591048;19;19926;-24
2022/05/29 01:29:22;;;;;;;;;;;16.10;99.90;;;;;;4590541;19;19915;-25
2022/05/29 01:31:02;;;;;;;;;;;16.10;99.90;;;;;;4590631;19;19923;-25
2022/05/29 01:32:33;;;;;;;;;;;16.10;99.90;;;;;;4590936;19;19982;-25
2022/05/29 01:34:07;;;;;;;;;;;16.10;99.90;;;;;;4591460;19;19918;-28
2022/05/29 01:35:47;;;;;;;;;;;16.10;99.90;;;;;;4589161;19;20322;-25
2022/05/29 01:37:50;;;;;;;;;;;16.10;99.90;;;;;;4591345;19;19915;-23
2022/05/29 01:39:21;;;;;;;;;;;16.10;99.90;;;;;;4588978;19;19942;-28
2022/05/29 01:40:54;;;;;;;;;;;16.10;99.90;;;;;;4588171;19;19914;-23
2022/05/29 01:42:31;;;;;;;;;;;16.00;99.90;;;;;;4589012;19;19918;-23
2022/05/29 01:44:02;;;;;;;;;;;16.00;99.90;;;;;;4589091;19;19915;-24
2022/05/29 01:45:54;;;;;;;;;;;16.00;99.90;;;;;;4589039;19;19919;-24
2022/05/29 01:47:28;;;;;;;;;;;16.10;99.90;;;;;;4588903;19;19914;-27
2022/05/29 01:49:18;;;;;;;;;;;16.10;99.90;;;;;;4588783;19;19952;-26
2022/05/29 01:50:54;;;;;;;;;;;16.10;99.90;;;;;;4587669;19;20364;-25
2022/05/29 01:52:26;;;;;;;;;;;16.10;99.90;;;;;;4588598;19;20237;-24
2022/05/29 01:53:59;;;;;;;;;;;16.00;99.90;;;;;;4589487;19;19907;-25
2022/05/29 01:55:31;;;;;;;;;;;16.10;99.90;;;;;;4587411;19;20357;-24
2022/05/29 01:57:03;;;;;;;;;;;16.00;99.90;;;;;;4588916;19;19919;-27
2022/05/29 01:58:38;;;;;;;;;;;16.10;99.90;;;;;;4587365;19;19926;-29
2022/05/29 02:00:12;;;;;;;;;;;16.10;99.90;;;;;;4589086;19;19910;-24
2022/05/29 02:01:47;;;;;;;;;;;16.00;99.90;;;;;;4588539;19;19982;-26
2022/05/29 02:03:19;;;;;;;;;;;16.10;99.90;;;;;;4588477;19;20393;-24
2022/05/29 02:04:52;;;;;;;;;;;16.10;99.90;;;;;;4588597;19;20332;-23
2022/05/29 02:06:27;;;;;;;;;;;16.00;99.90;;;;;;4588720;19;20411;-24
2022/05/29 02:08:18;;;;;;;;;;;16.00;99.90;;;;;;4588461;19;20265;-24
2022/05/29 02:10:00;;;;;;;;;;;16.00;99.90;;;;;;4586275;19;19925;-24
2022/05/29 02:11:31;;;;;;;;;;;16.10;99.90;;;;;;4588463;19;19915;-25
2022/05/29 02:13:13;;;;;;;;;;;16.00;99.90;;;;;;4588406;19;19942;-25
2022/05/29 02:14:49;;;;;;;;;;;16.00;99.90;;;;;;4588274;19;20016;-24
2022/05/29 02:16:29;;;;;;;;;;;16.10;99.90;;;;;;4589874;19;19919;-26
2022/05/29 02:18:02;;;;;;;;;;;16.10;99.90;;;;;;4590505;19;19978;-24
2022/05/29 02:19:33;;;;;;;;;;;16.10;99.90;;;;;;4586988;19;19919;-23
2022/05/29 02:21:06;;;;;;;;;;;16.10;99.90;;;;;;4588391;19;19915;-25
2022/05/29 02:22:37;;;;;;;;;;;16.10;99.90;;;;;;4589851;19;19919;-24
2022/05/29 02:24:12;;;;;;;;;;;16.10;99.90;;;;;;4590626;19;20270;-24
2022/05/29 02:25:43;;;;;;;;;;;16.10;99.90;;;;;;4591104;19;19942;-25
2022/05/29 02:27:34;;;;;;;;;;;16.10;99.90;;;;;;4590040;19;19922;-29
2022/05/29 02:29:09;;;;;;;;;;;16.10;99.90;;;;;;4592557;19;19974;-24
2022/05/29 02:30:45;;;;;;;;;;;16.10;99.90;;;;;;4593539;19;19978;-27
2022/05/29 02:32:35;;;;;;;;;;;16.10;99.90;;;;;;4594125;19;20317;-24
2022/05/29 02:34:06;;;;;;;;;;;16.10;99.90;;;;;;4592932;19;19988;-24
2022/05/29 02:35:41;;;;;;;;;;;16.00;99.90;;;;;;4594520;19;19915;-26
2022/05/29 02:37:15;;;;;;;;;;;16.10;99.90;;;;;;4593328;19;20336;-25
2022/05/29 02:39:04;;;;;;;;;;;16.10;99.90;;;;;;4594423;19;19925;-27
2022/05/29 02:40:45;;;;;;;;;;;16.00;99.90;;;;;;4593891;19;19974;-26
2022/05/29 02:42:19;;;;;;;;;;;16.10;99.90;;;;;;4595553;19;19963;-25
2022/05/29 02:44:02;;;;;;;;;;;16.10;99.90;;;;;;4595271;19;19971;-23
2022/05/29 02:45:38;;;;;;;;;;;16.10;99.90;;;;;;4593067;19;19930;-25
2022/05/29 02:47:19;;;;;;;;;;;16.10;99.90;;;;;;4594702;19;20022;-24
2022/05/29 02:49:00;;;;;;;;;;;16.10;99.90;;;;;;4594473;19;19947;-23
2022/05/29 02:50:32;;;;;;;;;;;16.10;99.90;;;;;;4593626;19;19914;-27
2022/05/29 02:52:08;;;;;;;;;;;16.00;99.90;;;;;;4593061;19;19943;-28
2022/05/29 02:53:43;;;;;;;;;;;16.10;99.90;;;;;;4592040;19;19934;-24
2022/05/29 02:55:16;;;;;;;;;;;16.10;99.90;;;;;;4594296;19;19915;-26
2022/05/29 02:56:47;;;;;;;;;;;16.10;99.90;;;;;;4594894;19;19970;-24
2022/05/29 02:58:19;;;;;;;;;;;16.00;99.90;;;;;;4593846;19;19930;-26
2022/05/29 02:59:52;;;;;;;;;;;16.10;99.90;;;;;;4593296;19;19918;-24
2022/05/29 03:01:37;;;;;;;;;;;16.00;99.90;;;;;;4592454;19;19939;-24
2022/05/29 03:03:17;;;;;;;;;;;16.10;99.90;;;;;;4594414;19;20354;-27
2022/05/29 03:04:48;;;;;;;;;;;16.10;99.90;;;;;;4592558;19;19984;-23
2022/05/29 03:06:19;;;;;;;;;;;16.10;99.90;;;;;;4593760;19;19982;-25
2022/05/29 03:07:53;;;;;;;;;;;16.10;99.90;;;;;;4594178;19;19922;-24
2022/05/29 03:09:23;;;;;;;;;;;16.00;99.90;;;;;;4594338;19;20340;-24
2022/05/29 03:11:15;;;;;;;;;;;16.00;99.90;;;;;;4593532;19;19914;-25
2022/05/29 03:12:46;;;;;;;;;;;16.00;99.90;;;;;;4593685;19;19918;-24
2022/05/29 03:14:18;;;;;;;;;;;16.00;99.90;;;;;;4592889;19;19926;-25
2022/05/29 03:16:05;;;;;;;;;;;16.10;99.90;;;;;;4594152;19;19954;-24
2022/05/29 03:17:51;;;;;;;;;;;16.00;99.90;;;;;;4592020;19;20285;-24
2022/05/29 03:19:25;;;;;;;;;;;16.00;99.90;;;;;;4593452;19;19990;-23
2022/05/29 03:21:00;;;;;;;;;;;16.10;99.90;;;;;;4592278;19;20007;-24
2022/05/29 03:22:52;;;;;;;;;;;16.10;99.90;;;;;;4592822;19;19982;-25
2022/05/29 03:24:23;;;;;;;;;;;16.10;99.90;;;;;;4591004;19;19923;-23
2022/05/29 03:25:56;;;;;;;;;;;16.10;99.90;;;;;;4592028;19;19982;-26
2022/05/29 03:27:56;;;;;;;;;;;16.00;99.90;;;;;;4592249;19;19937;-24
2022/05/29 03:29:46;;;;;;;;;;;16.00;99.90;;;;;;4591207;19;20354;-26
2022/05/29 03:31:19;;;;;;;;;;;16.00;99.90;;;;;;4591646;19;19945;-27
2022/05/29 03:32:54;;;;;;;;;;;16.00;99.90;;;;;;4590667;19;19923;-27
2022/05/29 03:34:25;;;;;;;;;;;16.00;99.90;;;;;;4591438;19;19914;-29
2022/05/29 03:35:56;;;;;;;;;;;16.10;99.90;;;;;;4591552;19;19918;-26
2022/05/29 03:37:27;;;;;;;;;;;16.00;99.90;;;;;;4590776;19;20352;-27
2022/05/29 03:38:58;;;;;;;;;;;16.00;99.90;;;;;;4591671;19;19925;-25
2022/05/29 03:40:29;;;;;;;;;;;16.00;99.90;;;;;;4589080;19;19951;-24
2022/05/29 03:42:00;;;;;;;;;;;16.00;99.90;;;;;;4590987;19;20253;-25
2022/05/29 03:43:31;;;;;;;;;;;16.00;99.90;;;;;;4591096;19;19915;-27
2022/05/29 03:45:02;;;;;;;;;;;16.00;99.90;;;;;;4590842;19;20384;-26
2022/05/29 03:46:33;;;;;;;;;;;16.00;99.90;;;;;;4591789;19;19915;-24
2022/05/29 03:48:05;;;;;;;;;;;16.00;99.90;;;;;;4591103;19;20388;-24
2022/05/29 03:49:36;;;;;;;;;;;16.00;99.90;;;;;;4591180;19;19915;-25
2022/05/29 03:51:07;;;;;;;;;;;16.00;99.90;;;;;;4591242;19;20270;-27
2022/05/29 03:52:38;;;;;;;;;;;16.00;99.90;;;;;;4591320;19;19927;-27
2022/05/29 03:54:09;;;;;;;;;;;16.00;99.90;;;;;;4590906;19;20352;-27
2022/05/29 03:55:40;;;;;;;;;;;16.00;99.90;;;;;;4591185;19;19947;-26
2022/05/29 03:57:10;;;;;;;;;;;16.00;99.90;;;;;;4590692;19;19919;-25
2022/05/29 03:58:41;;;;;;;;;;;16.10;99.90;;;;;;4590063;19;19930;-25
2022/05/29 04:00:13;;;;;;;;;;;16.00;99.90;;;;;;4590785;19;19919;-25
2022/05/29 04:01:44;;;;;;;;;;;16.00;99.90;;;;;;4591635;19;20410;-25
2022/05/29 04:03:14;;;;;;;;;;;16.10;99.90;;;;;;4591892;19;19926;-26
2022/05/29 04:04:45;;;;;;;;;;;16.10;99.90;;;;;;4592794;19;19918;-23
2022/05/29 04:06:16;;;;;;;;;;;16.00;99.90;;;;;;4592801;19;19974;-24
2022/05/29 04:13:16;;;;;;;;;;;16.10;99.90;;;;;;4591083;19;19923;-26
2022/05/29 04:14:47;;;;;;;;;;;16.10;99.90;;;;;;4591550;19;19921;-24
2022/05/29 04:16:18;;;;;;;;;;;16.10;99.90;;;;;;4592456;19;19923;-26
2022/05/29 04:17:49;;;;;;;;;;;16.00;99.90;;;;;;4592106;19;20369;-26
2022/05/29 04:19:20;;;;;;;;;;;16.10;99.90;;;;;;4592623;19;19911;-24
2022/05/29 04:20:52;;;;;;;;;;;16.00;99.90;;;;;;4591517;19;19907;-30
2022/05/29 04:22:23;;;;;;;;;;;16.10;99.90;;;;;;4593086;19;19922;-27
2022/05/29 04:23:54;;;;;;;;;;;16.00;99.90;;;;;;4593208;19;19987;-24
2022/05/29 04:25:25;;;;;;;;;;;16.00;99.90;;;;;;4592397;19;19922;-24
2022/05/29 04:26:56;;;;;;;;;;;16.00;99.90;;;;;;4590195;19;19919;-24
2022/05/29 04:28:27;;;;;;;;;;;16.00;99.90;;;;;;4593057;19;19938;-28
2022/05/29 04:29:58;;;;;;;;;;;16.00;99.90;;;;;;4593159;19;19919;-23
2022/05/29 04:31:29;;;;;;;;;;;16.10;99.90;;;;;;4592457;19;19918;-26
2022/05/29 04:33:00;;;;;;;;;;;16.10;99.90;;;;;;4592365;19;19918;-23
2022/05/29 04:34:31;;;;;;;;;;;16.10;99.90;;;;;;4591114;19;20252;-24
2022/05/29 04:36:02;;;;;;;;;;;16.10;99.90;;;;;;4591758;19;20252;-26
2022/05/29 04:37:33;;;;;;;;;;;16.10;99.90;;;;;;4592773;19;19910;-24
2022/05/29 04:39:03;;;;;;;;;;;16.10;99.90;;;;;;4592464;19;19923;-29
2022/05/29 04:40:38;;;;;;;;;;;16.10;99.90;;;;;;4592490;19;19939;-24
2022/05/29 04:42:10;;;;;;;;;;;16.10;99.90;;;;;;4592212;19;19952;-24
2022/05/29 04:43:41;;;;;;;;;;;16.00;99.90;;;;;;4589973;19;19918;-26
2022/05/29 04:45:12;;;;;;;;;;;16.10;99.90;;;;;;4592931;19;20230;-25
2022/05/29 04:46:42;;;;;;;;;;;16.00;99.90;;;;;;4591283;19;19978;-27
2022/05/29 04:48:14;;;;;;;;;;;16.10;99.90;;;;;;4591424;19;20256;-26
2022/05/29 04:49:45;;;;;;;;;;;16.10;99.90;;;;;;4592429;19;19926;-23
2022/05/29 04:51:15;;;;;;;;;;;16.00;99.90;;;;;;4592114;19;19915;-26
2022/05/29 04:52:46;;;;;;;;;;;16.10;99.90;;;;;;4592268;19;20379;-25
2022/05/29 04:54:17;;;;;;;;;;;16.10;99.90;;;;;;4589361;19;19982;-24
2022/05/29 04:55:50;;;;;;;;;;;16.10;99.90;;;;;;4588006;19;19915;-27
2022/05/29 04:57:21;;;;;;;;;;;16.10;99.90;;;;;;4590682;19;19919;-26
2022/05/29 04:58:52;;;;;;;;;;;16.10;99.90;;;;;;4591330;19;19949;-23
2022/05/29 05:00:23;;;;;;;;;;;16.10;99.90;;;;;;4591743;19;19930;-26
2022/05/29 05:01:57;;;;;;;;;;;16.10;99.90;;;;;;4592226;19;19982;-26
2022/05/29 05:03:29;;;;;;;;;;;16.10;99.90;;;;;;4592445;19;19915;-27
2022/05/29 05:05:00;;;;;;;;;;;16.10;99.90;;;;;;4591905;19;19919;-24
2022/05/29 05:06:31;;;;;;;;;;;16.10;99.90;;;;;;4591980;19;19978;-25
2022/05/29 05:08:03;;;;;;;;;;;16.10;99.90;;;;;;4591693;19;20265;-27
2022/05/29 05:09:33;;;;;;;;;;;16.10;99.90;;;;;;4591371;19;19986;-25
2022/05/29 05:11:05;;;;;;;;;;;16.10;99.90;;;;;;4589361;19;19967;-24
2022/05/29 05:12:36;;;;;;;;;;;16.10;99.90;;;;;;4591032;19;19922;-24
2022/05/29 05:14:07;;;;;;;;;;;16.10;99.90;;;;;;4591748;19;19914;-24
2022/05/29 05:15:38;;;;;;;;;;;16.10;99.90;;;;;;4591688;19;19930;-24
2022/05/29 05:17:09;;;;;;;;;;;16.10;99.90;;;;;;4591080;19;19914;-24
2022/05/29 05:18:40;;;;;;;;;;;16.10;99.90;;;;;;4589740;19;19998;-27
2022/05/29 05:20:14;;;;;;;;;;;16.10;99.90;;;;;;4590933;19;19924;-24
2022/05/29 05:21:45;;;;;;;;;;;16.10;99.90;;;;;;4589775;19;19922;-23
2022/05/29 05:23:16;;;;;;;;;;;16.10;99.90;;;;;;4591092;19;19919;-23
2022/05/29 05:24:48;;;;;;;;;;;16.20;99.90;;;;;;4591902;19;19914;-27
2022/05/29 05:26:19;;;;;;;;;;;16.10;99.90;;;;;;4592168;19;19917;-25
2022/05/29 05:27:50;;;;;;;;;;;16.10;99.90;;;;;;4591174;19;19918;-23
2022/05/29 05:29:21;;;;;;;;;;;16.10;99.90;;;;;;4591812;19;19926;-24
2022/05/29 05:31:06;;;;;;;;;;;16.10;99.90;;;;;;4591437;19;19923;-24
2022/05/29 05:32:37;;;;;;;;;;;16.10;99.90;;;;;;4591857;19;19915;-24
2022/05/29 05:34:08;;;;;;;;;;;16.10;99.90;;;;;;4591258;19;19919;-24
2022/05/29 05:35:39;;;;;;;;;;;16.10;99.90;;;;;;4591652;19;19922;-25
2022/05/29 05:37:10;;;;;;;;;;;16.10;99.90;;;;;;4591496;19;19956;-23
2022/05/29 05:38:41;;;;;;;;;;;16.10;99.90;;;;;;4591363;19;20356;-23
2022/05/29 05:40:13;;;;;;;;;;;16.20;99.90;;;;;;4590820;19;19911;-25
2022/05/29 05:41:43;;;;;;;;;;;16.20;99.90;;;;;;4591177;19;19911;-24
2022/05/29 05:43:14;;;;;;;;;;;16.20;99.90;;;;;;4590966;19;19946;-24
2022/05/29 05:44:46;;;;;;;;;;;16.10;99.90;;;;;;4590823;19;20345;-25
2022/05/29 05:46:17;;;;;;;;;;;16.20;99.90;;;;;;4590967;19;19926;-25
2022/05/29 05:47:48;;;;;;;;;;;16.20;99.90;;;;;;4591856;19;20011;-26
2022/05/29 05:49:20;;;;;;;;;;;16.10;99.90;;;;;;4589772;19;19983;-26
2022/05/29 05:50:54;;;;;;;;;;;16.10;99.90;;;;;;4590818;19;20266;-23
2022/05/29 05:52:25;;;;;;;;;;;16.10;99.90;;;;;;4590767;19;20362;-21
2022/05/29 05:53:56;;;;;;;;;;;16.10;99.90;;;;;;4591177;19;19919;-24
2022/05/29 05:55:27;;;;;;;;;;;16.10;99.90;;;;;;4590728;19;19915;-25
2022/05/29 05:56:58;;;;;;;;;;;16.10;99.90;;;;;;4590897;19;20339;-24
2022/05/29 05:58:29;;;;;;;;;;;16.10;99.90;;;;;;4589797;19;19915;-25
2022/05/29 05:59:59;;;;;;;;;;;16.10;99.90;;;;;;4588163;19;19911;-24
2022/05/29 06:01:30;;;;;;;;;;;16.00;99.90;;;;;;4589598;19;20299;-25
2022/05/29 06:03:01;;;;;;;;;;;16.10;99.90;;;;;;4590946;19;19970;-24
2022/05/29 06:04:32;;;;;;;;;;;16.10;99.90;;;;;;4594873;19;19915;-25
2022/05/29 06:06:03;;;;;;;;;;;16.10;99.90;;;;;;4595310;19;19922;-27
2022/05/29 06:07:34;;;;;;;;;;;16.10;99.90;;;;;;4595126;19;19919;-27
2022/05/29 06:09:05;;;;;;;;;;;16.10;99.90;;;;;;4594997;19;19943;-24
2022/05/29 06:10:36;;;;;;;;;;;16.10;99.90;;;;;;4595946;19;19910;-27
2022/05/29 06:12:09;;;;;;;;;;;16.10;99.90;;;;;;4596058;19;19931;-24
2022/05/29 06:13:41;;;;;;;;;;;16.10;99.90;;;;;;4594496;19;19918;-25
2022/05/29 06:15:12;;;;;;;;;;;16.10;99.90;;;;;;4597062;19;19919;-24
2022/05/29 06:16:43;;;;;;;;;;;16.10;99.90;;;;;;4596191;19;19970;-24
2022/05/29 06:18:14;;;;;;;;;;;16.20;99.90;;;;;;4592579;19;19922;-25
2022/05/29 06:19:45;;;;;;;;;;;16.30;99.90;;;;;;4594301;19;20329;-26
2022/05/29 06:21:16;;;;;;;;;;;16.30;99.90;;;;;;4592486;19;19985;-23
2022/05/29 06:22:47;;;;;;;;;;;16.30;99.90;;;;;;4595672;19;19918;-27
2022/05/29 06:24:18;;;;;;;;;;;16.40;99.90;;;;;;4595494;19;19919;-26
2022/05/29 06:25:49;;;;;;;;;;;16.50;99.90;;;;;;4593889;19;19914;-24
2022/05/29 06:27:20;;;;;;;;;;;16.50;99.90;;;;;;4593336;19;19925;-24
2022/05/29 06:28:51;;;;;;;;;;;16.50;99.90;;;;;;4591922;19;20379;-25
2022/05/29 06:30:22;;;;;;;;;;;16.50;99.90;;;;;;4591789;19;19914;-28
2022/05/29 06:31:53;;;;;;;;;;;16.60;99.90;;;;;;4595644;19;19926;-26
2022/05/29 06:33:26;;;;;;;;;;;16.60;99.90;;;;;;4595069;19;19937;-26
2022/05/29 06:34:57;;;;;;;;;;;16.60;99.90;;;;;;4594138;19;20285;-24
2022/05/29 06:36:27;;;;;;;;;;;16.50;99.90;;;;;;4593849;19;19918;-23
2022/05/29 06:37:58;;;;;;;;;;;16.60;99.90;;;;;;4592389;19;19915;-26
2022/05/29 06:39:29;;;;;;;;;;;16.50;99.90;;;;;;4593944;19;19918;-25
2022/05/29 06:41:03;;;;;;;;;;;16.60;99.90;;;;;;4591810;19;19922;-25
2022/05/29 06:42:35;;;;;;;;;;;16.50;99.90;;;;;;4593148;19;19982;-26
2022/05/29 06:44:06;;;;;;;;;;;16.50;99.90;;;;;;4592422;19;20333;-25
2022/05/29 06:45:37;;;;;;;;;;;16.50;99.90;;;;;;4592412;19;20330;-25
2022/05/29 06:47:09;;;;;;;;;;;16.50;99.90;;;;;;4595317;19;19923;-24
2022/05/29 06:48:40;;;;;;;;;;;16.50;99.90;;;;;;4595249;19;19925;-25
2022/05/29 06:50:11;;;;;;;;;;;16.60;99.90;;;;;;4592719;19;19922;-24
2022/05/29 06:51:43;;;;;;;;;;;16.60;99.90;;;;;;4594119;19;19978;-25
2022/05/29 06:53:14;;;;;;;;;;;16.70;99.90;;;;;;4593894;19;19917;-26
2022/05/29 06:54:45;;;;;;;;;;;16.70;99.90;;;;;;4592364;19;19919;-25
2022/05/29 06:56:16;;;;;;;;;;;16.70;99.90;;;;;;4591686;19;20343;-26
2022/05/29 06:57:47;;;;;;;;;;;16.60;99.90;;;;;;4594377;19;19931;-28
2022/05/29 06:59:20;;;;;;;;;;;16.60;99.90;;;;;;4593615;19;20364;-26
2022/05/29 07:06:59;;;;;;;;;;;16.50;99.90;;;;;;4594875;19;19994;-26
2022/05/29 07:08:17;;;;;;;;;;;16.40;99.90;;;;;;4592231;19;20322;-23
2022/05/29 07:09:49;;;;;;;;;;;16.60;99.90;;;;;;4592620;19;19978;-24
2022/05/29 07:11:21;;;;;;;;;;;16.80;99.90;;;;;;4594097;19;20630;-27
2022/05/29 07:12:52;;;;;;;;;;;16.70;99.90;;;;;;4593459;19;19915;-28
2022/05/29 07:14:23;;;;;;;;;;;16.60;99.90;;;;;;4593029;19;19960;-24
2022/05/29 07:15:54;;;;;;;;;;;16.60;99.90;;;;;;4590722;19;19919;-24
2022/05/29 07:17:27;;;;;;;;;;;16.60;99.90;;;;;;4591899;19;19922;-24
2022/05/29 07:18:58;;;;;;;;;;;16.50;99.90;;;;;;4593189;19;19914;-23
2022/05/29 07:20:29;;;;;;;;;;;16.50;99.90;;;;;;4590812;19;19922;-25
2022/05/29 07:22:00;;;;;;;;;;;16.60;99.90;;;;;;4591772;19;19922;-25
2022/05/29 07:23:31;;;;;;;;;;;16.60;99.90;;;;;;4592187;19;19910;-26
2022/05/29 07:25:02;;;;;;;;;;;16.50;99.90;;;;;;4594961;19;19919;-25
2022/05/29 07:26:34;;;;;;;;;;;16.50;99.90;;;;;;4593959;19;19934;-22
2022/05/29 07:28:06;;;;;;;;;;;16.50;99.90;;;;;;4594274;19;19918;-30
2022/05/29 07:29:37;;;;;;;;;;;16.40;99.90;;;;;;4593577;19;20334;-22
2022/05/29 07:31:08;;;;;;;;;;;16.50;99.90;;;;;;4593660;19;19937;-25
2022/05/29 07:32:38;;;;;;;;;;;16.50;99.90;;;;;;4593278;19;20317;-24
2022/05/29 07:34:10;;;;;;;;;;;16.50;99.90;;;;;;4592716;19;19970;-25
2022/05/29 07:35:41;;;;;;;;;;;16.50;99.90;;;;;;4590427;19;20256;-27
2022/05/29 07:37:15;;;;;;;;;;;16.40;99.90;;;;;;4591373;19;20354;-27
2022/05/29 07:38:46;;;;;;;;;;;16.50;99.90;;;;;;4591325;19;20234;-23
2022/05/29 07:40:17;;;;;;;;;;;16.50;99.90;;;;;;4594042;19;19927;-24
2022/05/29 07:43:37;;;;;;;;;;;16.50;99.90;;;;;;4594226;19;19915;-27
2022/05/29 07:45:08;;;;;;;;;;;16.60;99.90;;;;;;4593048;19;19929;-23
2022/05/29 07:46:39;;;;;;;;;;;16.60;99.90;;;;;;4590788;19;20244;-26
2022/05/29 07:48:10;;;;;;;;;;;16.60;99.90;;;;;;4590882;19;19907;-27
2022/05/29 07:49:42;;;;;;;;;;;16.60;99.90;;;;;;4589520;19;19921;-24
2022/05/29 07:51:13;;;;;;;;;;;16.60;99.90;;;;;;4589937;19;20271;-27
2022/05/29 07:52:44;;;;;;;;;;;16.60;99.90;;;;;;4589393;19;19923;-24
2022/05/29 07:54:15;;;;;;;;;;;16.70;99.90;;;;;;4589153;19;19925;-26
2022/05/29 07:55:46;;;;;;;;;;;16.60;99.90;;;;;;4588920;19;19931;-26
2022/05/29 07:57:17;;;;;;;;;;;16.60;99.90;;;;;;4591971;19;19911;-24
2022/05/29 07:58:48;;;;;;;;;;;16.70;99.90;;;;;;4591703;19;19922;-27
2022/05/29 08:00:19;;;;;;;;;;;16.80;99.90;;;;;;4590771;19;19938;-25
2022/05/29 08:01:50;;;;;;;;;;;16.80;99.90;;;;;;4590474;19;19982;-26
2022/05/29 08:03:22;;;;;;;;;;;16.80;99.90;;;;;;4588533;19;19918;-25
2022/05/29 08:04:59;;;;;;;;;;;16.90;99.90;;;;;;4590506;19;20321;-28
2022/05/29 08:06:30;;;;;;;;;;;17.00;99.90;;;;;;4592920;19;20309;-33
2022/05/29 08:08:04;;;;;;;;;;;17.00;99.90;;;;;;4591716;19;20348;-25
2022/05/29 08:09:34;;;;;;;;;;;17.00;99.90;;;;;;4590553;19;19923;-28
2022/05/29 08:11:06;;;;;;;;;;;17.00;99.90;;;;;;4591646;19;19974;-26
2022/05/29 08:12:37;;;;;;;;;;;17.00;99.90;;;;;;4593630;19;19926;-24
2022/05/29 08:14:08;;;;;;;;;;;17.00;99.90;;;;;;4593336;19;19914;-24
2022/05/29 08:15:39;;;;;;;;;;;16.90;99.90;;;;;;4593452;19;20357;-25
2022/05/29 08:17:10;;;;;;;;;;;17.00;99.90;;;;;;4592583;19;19918;-23
2022/05/29 08:18:41;;;;;;;;;;;17.00;99.90;;;;;;4592631;19;19915;-24
2022/05/29 08:20:12;;;;;;;;;;;17.00;99.90;;;;;;4591075;19;20015;-25
2022/05/29 08:21:43;;;;;;;;;;;16.80;99.90;;;;;;4590563;19;20335;-23
2022/05/29 08:23:14;;;;;;;;;;;16.80;99.90;;;;;;4590328;19;19919;-25
2022/05/29 08:30:46;;;;;;;;;;;16.80;99.90;;;;;;4589671;19;19945;-24
2022/05/29 08:32:18;;;;;;;;;;;16.80;99.90;;;;;;4590442;19;19918;-23
2022/05/29 08:33:49;;;;;;;;;;;16.80;99.90;;;;;;4589247;19;19925;-24
2022/05/29 08:35:20;;;;;;;;;;;16.70;99.90;;;;;;4589061;19;19948;-26
2022/05/29 08:36:51;;;;;;;;;;;16.70;99.90;;;;;;4588884;19;19935;-26
2022/05/29 08:38:22;;;;;;;;;;;16.70;99.90;;;;;;4590488;19;19915;-27
2022/05/29 08:39:54;;;;;;;;;;;16.70;99.90;;;;;;4590483;19;19928;-27
2022/05/29 08:41:37;;;;;;;;;;;16.70;99.90;;;;;;4588678;19;19918;-25
2022/05/29 08:43:10;;;;;;;;;;;16.70;99.90;;;;;;4588750;19;20256;-26
2022/05/29 08:44:47;;;;;;;;;;;16.80;99.90;;;;;;4588725;19;20085;-25
2022/05/29 08:46:19;;;;;;;;;;;16.70;99.90;;;;;;4589437;19;19914;-26
2022/05/29 08:47:50;;;;;;;;;;;16.70;99.90;;;;;;4590181;19;19949;-24
2022/05/29 08:49:22;;;;;;;;;;;16.70;99.90;;;;;;4588079;19;19930;-25
2022/05/29 08:50:55;;;;;;;;;;;16.70;99.90;;;;;;4590829;19;19935;-25
2022/05/29 08:52:39;;;;;;;;;;;16.80;99.90;;;;;;4590063;19;20342;-26
2022/05/29 08:54:14;;;;;;;;;;;16.90;99.90;;;;;;4589903;19;19922;-26
2022/05/29 08:55:47;;;;;;;;;;;17.10;99.90;;;;;;4589525;19;19918;-28
2022/05/29 08:57:19;;;;;;;;;;;17.20;99.90;;;;;;4590582;19;19914;-26
2022/05/29 08:59:00;;;;;;;;;;;17.30;99.90;;;;;;4590579;19;19929;-25
2022/05/29 09:00:49;;;;;;;;;;;17.40;99.90;;;;;;4587966;19;20004;-24
2022/05/29 09:02:35;;;;;;;;;;;17.30;99.90;;;;;;4591540;19;19925;-25
2022/05/29 09:04:10;;;;;;;;;;;17.20;99.90;;;;;;4591086;19;20639;-26
2022/05/29 09:05:44;;;;;;;;;;;17.10;99.90;;;;;;4590517;19;19974;-27
2022/05/29 09:07:17;;;;;;;;;;;17.00;99.90;;;;;;4590654;19;19939;-24
2022/05/29 09:08:51;;;;;;;;;;;17.00;99.90;;;;;;4591310;19;19918;-25
2022/05/29 09:10:32;;;;;;;;;;;16.90;99.90;;;;;;4592070;19;19929;-23
2022/05/29 09:12:04;;;;;;;;;;;16.90;99.90;;;;;;4591018;19;19933;-23
2022/05/29 09:13:37;;;;;;;;;;;16.90;99.90;;;;;;4589030;19;19918;-25
2022/05/29 09:15:10;;;;;;;;;;;16.90;99.90;;;;;;4590283;19;19915;-26
2022/05/29 09:16:45;;;;;;;;;;;16.90;99.90;;;;;;4588632;19;20256;-25
2022/05/29 09:18:22;;;;;;;;;;;16.90;99.90;;;;;;4591029;19;19938;-24
2022/05/29 09:19:54;;;;;;;;;;;17.00;99.90;;;;;;4591701;19;19937;-25
2022/05/29 09:21:26;;;;;;;;;;;17.20;99.90;;;;;;4588469;19;19982;-26